sensor_id;sensor_type;location;lat;lon;timestamp;pressure;altitude;pressure_sealevel;temperature;humidity
40908;BME280;51055;59.436;24.778;2023-03-14T16:01:32;98465.47;;;6.59;100.00
40908;BME280;51055;59.436;24.778;2023-03-14T16:04:01;98467.47;;;6.65;100.00
40908;BME280;51055;59.436;24.778;2023-03-14T16:06:29;98479.00;;;6.64;100.00
40908;BME280;51055;59.436;24.778;2023-03-14T16:08:58;98476.56;;;6.71;100.00
40908;BME280;51055;59.436;24.778;2023-03-14T16:11:27;98482.97;;;6.68;100.00
40908;BME280;51055;59.436;24.778;2023-03-14T16:13:54;98489.59;;;6.72;100.00
40908;BME280;51055;59.436;24.778;2023-03-14T16:16:22;98488.56;;;6.83;100.00
40908;BME280;51055;59.436;24.778;2023-03-14T16:18:49;98498.63;;;6.88;100.00
40908;BME280;51055;59.436;24.778;2023-03-14T16:21:19;98500.28;;;6.89;100.00
40908;BME280;51055;59.436;24.778;2023-03-14T16:23:47;98497.28;;;6.84;100.00
40908;BME280;51055;59.436;24.778;2023-03-14T16:26:18;98511.13;;;6.86;100.00
40908;BME280;51055;59.436;24.778;2023-03-14T16:28:47;98503.88;;;6.88;100.00
40908;BME280;51055;59.436;24.778;2023-03-14T16:31:18;98516.25;;;6.87;100.00
40908;BME280;51055;59.436;24.778;2023-03-14T16:33:48;98503.34;;;6.84;100.00
40908;BME280;51055;59.436;24.778;2023-03-14T16:36:16;98515.13;;;6.90;100.00
40908;BME280;51055;59.436;24.778;2023-03-14T16:38:45;98509.16;;;6.88;100.00
40908;BME280;51055;59.436;24.778;2023-03-14T16:41:15;98511.13;;;6.86;100.00
40908;BME280;51055;59.436;24.778;2023-03-14T16:43:44;98506.81;;;6.85;100.00
40908;BME280;51055;59.436;24.778;2023-03-14T16:46:15;98503.66;;;6.81;100.00
40908;BME280;51055;59.436;24.778;2023-03-14T16:48:51;98503.84;;;6.79;100.00
40908;BME280;51055;59.436;24.778;2023-03-14T16:51:20;98506.09;;;6.74;100.00
40908;BME280;51055;59.436;24.778;2023-03-14T16:53:48;98502.66;;;6.74;100.00
40908;BME280;51055;59.436;24.778;2023-03-14T16:56:16;98506.16;;;6.65;100.00
40908;BME280;51055;59.436;24.778;2023-03-14T16:58:45;98510.16;;;6.69;100.00
40908;BME280;51055;59.436;24.778;2023-03-14T17:01:14;98508.19;;;6.71;100.00
40908;BME280;51055;59.436;24.778;2023-03-14T17:03:46;98518.50;;;6.64;100.00
40908;BME280;51055;59.436;24.778;2023-03-14T17:06:18;98525.28;;;6.67;100.00
40908;BME280;51055;59.436;24.778;2023-03-14T17:08:46;98526.03;;;6.59;100.00
40908;BME280;51055;59.436;24.778;2023-03-14T17:11:14;98523.19;;;6.70;100.00
40908;BME280;51055;59.436;24.778;2023-03-14T17:13:42;98529.34;;;6.61;100.00
40908;BME280;51055;59.436;24.778;2023-03-14T17:16:10;98520.16;;;6.65;100.00
40908;BME280;51055;59.436;24.778;2023-03-14T17:18:38;98530.34;;;6.60;100.00
40908;BME280;51055;59.436;24.778;2023-03-14T17:21:07;98520.25;;;6.56;100.00
40908;BME280;51055;59.436;24.778;2023-03-14T17:23:35;98524.97;;;6.52;100.00
40908;BME280;51055;59.436;24.778;2023-03-14T17:26:02;98513.91;;;6.49;100.00
40908;BME280;51055;59.436;24.778;2023-03-14T17:28:31;98503.53;;;6.47;100.00
40908;BME280;51055;59.436;24.778;2023-03-14T17:33:29;98498.72;;;6.43;100.00
40908;BME280;51055;59.436;24.778;2023-03-14T17:35:57;98504.41;;;6.38;100.00
40908;BME280;51055;59.436;24.778;2023-03-14T17:38:26;98510.38;;;6.40;100.00
40908;BME280;51055;59.436;24.778;2023-03-14T17:40:54;98514.16;;;6.38;100.00
40908;BME280;51055;59.436;24.778;2023-03-14T17:43:22;98511.66;;;6.36;100.00
40908;BME280;51055;59.436;24.778;2023-03-14T17:46:01;98512.78;;;6.34;100.00
40908;BME280;51055;59.436;24.778;2023-03-14T17:48:29;98521.28;;;6.27;100.00
40908;BME280;51055;59.436;24.778;2023-03-14T17:50:58;98507.59;;;6.24;100.00
40908;BME280;51055;59.436;24.778;2023-03-14T17:53:28;98519.75;;;6.25;100.00
40908;BME280;51055;59.436;24.778;2023-03-14T17:55:57;98511.28;;;6.31;100.00
40908;BME280;51055;59.436;24.778;2023-03-14T17:58:25;98510.06;;;6.25;100.00
40908;BME280;51055;59.436;24.778;2023-03-14T18:00:56;98508.53;;;6.23;100.00
40908;BME280;51055;59.436;24.778;2023-03-14T18:03:24;98508.31;;;6.16;100.00
40908;BME280;51055;59.436;24.778;2023-03-14T18:05:52;98514.25;;;6.18;100.00
40908;BME280;51055;59.436;24.778;2023-03-14T18:08:20;98513.56;;;6.16;100.00
40908;BME280;51055;59.436;24.778;2023-03-14T18:10:52;98507.19;;;6.19;100.00
40908;BME280;51055;59.436;24.778;2023-03-14T18:13:20;98503.44;;;6.21;100.00
40908;BME280;51055;59.436;24.778;2023-03-14T18:15:48;58956.56;;;-140.69;100.00
40908;BME280;51055;59.436;24.778;2023-03-14T18:18:19;58956.56;;;-140.69;100.00
40908;BME280;51055;59.436;24.778;2023-03-14T18:20:51;58956.56;;;-140.69;100.00
40908;BME280;51055;59.436;24.778;2023-03-14T18:23:21;58956.56;;;-140.69;100.00
40908;BME280;51055;59.436;24.778;2023-03-14T18:25:49;58956.56;;;-140.69;100.00
40908;BME280;51055;59.436;24.778;2023-03-14T18:28:18;58956.56;;;-140.69;100.00
40908;BME280;51055;59.436;24.778;2023-03-14T18:30:47;58956.56;;;-140.69;100.00
40908;BME280;51055;59.436;24.778;2023-03-14T18:33:20;58956.56;;;-140.69;100.00
40908;BME280;51055;59.436;24.778;2023-03-14T18:35:49;58956.56;;;-140.69;100.00
40908;BME280;51055;59.436;24.778;2023-03-14T18:38:20;58956.56;;;-140.69;100.00
40908;BME280;51055;59.436;24.778;2023-03-14T18:40:48;58956.56;;;-140.69;100.00
40908;BME280;51055;59.436;24.778;2023-03-14T18:43:16;58956.56;;;-140.69;100.00
40908;BME280;51055;59.436;24.778;2023-03-14T18:45:44;58956.56;;;-140.69;100.00
40908;BME280;51055;59.436;24.778;2023-03-14T18:48:12;58956.56;;;-140.69;100.00
40908;BME280;51055;59.436;24.778;2023-03-14T18:50:42;58956.56;;;-140.69;100.00
40908;BME280;51055;59.436;24.778;2023-03-14T18:53:09;58956.56;;;-140.69;100.00
40908;BME280;51055;59.436;24.778;2023-03-14T18:55:37;58956.56;;;-140.69;100.00
40908;BME280;51055;59.436;24.778;2023-03-14T18:58:05;58956.56;;;-140.69;100.00
40908;BME280;51055;59.436;24.778;2023-03-14T19:00:34;58956.56;;;-140.69;100.00
40908;BME280;51055;59.436;24.778;2023-03-14T19:03:04;58956.56;;;-140.69;100.00
40908;BME280;51055;59.436;24.778;2023-03-14T19:05:32;58956.56;;;-140.69;100.00
40908;BME280;51055;59.436;24.778;2023-03-14T19:08:00;58956.56;;;-140.69;100.00
40908;BME280;51055;59.436;24.778;2023-03-14T19:10:30;58956.56;;;-140.69;100.00
40908;BME280;51055;59.436;24.778;2023-03-14T19:13:00;58956.56;;;-140.69;100.00
40908;BME280;51055;59.436;24.778;2023-03-14T19:15:28;58956.56;;;-140.69;100.00
40908;BME280;51055;59.436;24.778;2023-03-14T19:17:56;58956.56;;;-140.69;100.00
40908;BME280;51055;59.436;24.778;2023-03-14T19:20:25;58956.56;;;-140.69;100.00
40908;BME280;51055;59.436;24.778;2023-03-14T19:22:52;58956.56;;;-140.69;100.00
40908;BME280;51055;59.436;24.778;2023-03-14T19:25:25;58956.56;;;-140.69;100.00
40908;BME280;51055;59.436;24.778;2023-03-14T19:27:53;58956.56;;;-140.69;100.00
40908;BME280;51055;59.436;24.778;2023-03-14T19:30:21;58956.56;;;-140.69;100.00
40908;BME280;51055;59.436;24.778;2023-03-14T19:32:51;58956.56;;;-140.69;100.00
40908;BME280;51055;59.436;24.778;2023-03-14T19:35:19;58956.56;;;-140.69;100.00
40908;BME280;51055;59.436;24.778;2023-03-14T19:37:47;58956.56;;;-140.69;100.00
40908;BME280;51055;59.436;24.778;2023-03-14T19:40:15;58956.56;;;-140.69;100.00
40908;BME280;51055;59.436;24.778;2023-03-14T19:42:46;58956.56;;;-140.69;100.00
40908;BME280;51055;59.436;24.778;2023-03-14T19:45:14;58956.56;;;-140.69;100.00
40908;BME280;51055;59.436;24.778;2023-03-14T19:47:42;58956.56;;;-140.69;100.00
40908;BME280;51055;59.436;24.778;2023-03-14T19:50:12;58956.56;;;-140.69;100.00
40908;BME280;51055;59.436;24.778;2023-03-14T19:52:40;58956.56;;;-140.69;100.00
40908;BME280;51055;59.436;24.778;2023-03-14T19:55:12;58956.56;;;-140.69;100.00
40908;BME280;51055;59.436;24.778;2023-03-14T19:57:40;58956.56;;;-140.69;100.00
40908;BME280;51055;59.436;24.778;2023-03-14T20:00:11;58956.56;;;-140.69;100.00
40908;BME280;51055;59.436;24.778;2023-03-14T20:02:50;58956.56;;;-140.69;100.00
40908;BME280;51055;59.436;24.778;2023-03-14T20:05:20;58956.56;;;-140.69;100.00
40908;BME280;51055;59.436;24.778;2023-03-14T20:07:48;58956.56;;;-140.69;100.00
40908;BME280;51055;59.436;24.778;2023-03-14T20:10:20;58956.56;;;-140.69;100.00
40908;BME280;51055;59.436;24.778;2023-03-14T20:12:52;58956.56;;;-140.69;100.00
40908;BME280;51055;59.436;24.778;2023-03-14T20:15:20;58956.56;;;-140.69;100.00
40908;BME280;51055;59.436;24.778;2023-03-14T20:17:50;58956.56;;;-140.69;100.00
40908;BME280;51055;59.436;24.778;2023-03-14T20:20:21;58956.56;;;-140.69;100.00
40908;BME280;51055;59.436;24.778;2023-03-14T20:22:49;58956.56;;;-140.69;100.00
40908;BME280;51055;59.436;24.778;2023-03-14T20:25:17;58956.56;;;-140.69;100.00
40908;BME280;51055;59.436;24.778;2023-03-14T20:27:46;58956.56;;;-140.69;100.00
40908;BME280;51055;59.436;24.778;2023-03-14T20:30:18;58956.56;;;-140.69;100.00
40908;BME280;51055;59.436;24.778;2023-03-14T20:32:49;58956.56;;;-140.69;100.00
40908;BME280;51055;59.436;24.778;2023-03-14T20:35:17;58956.56;;;-140.69;100.00
40908;BME280;51055;59.436;24.778;2023-03-14T20:37:51;58956.56;;;-140.69;100.00
40908;BME280;51055;59.436;24.778;2023-03-14T20:40:21;58956.56;;;-140.69;100.00
40908;BME280;51055;59.436;24.778;2023-03-14T20:42:51;58956.56;;;-140.69;100.00
40908;BME280;51055;59.436;24.778;2023-03-14T20:45:19;58956.56;;;-140.69;100.00
40908;BME280;51055;59.436;24.778;2023-03-14T20:47:47;58956.56;;;-140.69;100.00
40908;BME280;51055;59.436;24.778;2023-03-14T20:50:16;58956.56;;;-140.69;100.00
40908;BME280;51055;59.436;24.778;2023-03-14T20:52:44;58956.56;;;-140.69;100.00
40908;BME280;51055;59.436;24.778;2023-03-14T20:55:12;58956.56;;;-140.69;100.00
40908;BME280;51055;59.436;24.778;2023-03-14T20:57:40;58956.56;;;-140.69;100.00
40908;BME280;51055;59.436;24.778;2023-03-14T21:00:11;58956.56;;;-140.69;100.00
40908;BME280;51055;59.436;24.778;2023-03-14T21:02:44;58956.56;;;-140.69;100.00
40908;BME280;51055;59.436;24.778;2023-03-14T21:05:29;58956.56;;;-140.69;100.00
40908;BME280;51055;59.436;24.778;2023-03-14T21:07:57;58956.56;;;-140.69;100.00
40908;BME280;51055;59.436;24.778;2023-03-14T21:10:26;58956.56;;;-140.69;100.00
40908;BME280;51055;59.436;24.778;2023-03-14T21:12:53;58956.56;;;-140.69;100.00
40908;BME280;51055;59.436;24.778;2023-03-14T21:15:21;58956.56;;;-140.69;100.00
40908;BME280;51055;59.436;24.778;2023-03-14T21:17:49;58956.56;;;-140.69;100.00
40908;BME280;51055;59.436;24.778;2023-03-14T21:20:21;58956.56;;;-140.69;100.00
40908;BME280;51055;59.436;24.778;2023-03-14T21:22:52;58956.56;;;-140.69;100.00
40908;BME280;51055;59.436;24.778;2023-03-14T21:25:21;58956.56;;;-140.69;100.00
40908;BME280;51055;59.436;24.778;2023-03-14T21:27:48;58956.56;;;-140.69;100.00
40908;BME280;51055;59.436;24.778;2023-03-14T21:30:17;58956.56;;;-140.69;100.00
40908;BME280;51055;59.436;24.778;2023-03-14T21:32:45;58956.56;;;-140.69;100.00
40908;BME280;51055;59.436;24.778;2023-03-14T21:35:12;58956.56;;;-140.69;100.00
40908;BME280;51055;59.436;24.778;2023-03-14T21:37:40;58956.56;;;-140.69;100.00
40908;BME280;51055;59.436;24.778;2023-03-14T21:40:09;58956.56;;;-140.69;100.00
40908;BME280;51055;59.436;24.778;2023-03-14T21:42:39;58956.56;;;-140.69;100.00
40908;BME280;51055;59.436;24.778;2023-03-14T21:45:08;58956.56;;;-140.69;100.00
40908;BME280;51055;59.436;24.778;2023-03-14T21:47:36;58956.56;;;-140.69;100.00
40908;BME280;51055;59.436;24.778;2023-03-14T21:50:07;58956.56;;;-140.69;100.00
40908;BME280;51055;59.436;24.778;2023-03-14T21:52:39;58956.56;;;-140.69;100.00
40908;BME280;51055;59.436;24.778;2023-03-14T21:55:07;58956.56;;;-140.69;100.00
40908;BME280;51055;59.436;24.778;2023-03-14T21:57:35;58956.56;;;-140.69;100.00
40908;BME280;51055;59.436;24.778;2023-03-14T22:00:03;58956.56;;;-140.69;100.00
40908;BME280;51055;59.436;24.778;2023-03-14T22:02:33;58956.56;;;-140.69;100.00
40908;BME280;51055;59.436;24.778;2023-03-14T22:05:01;58956.56;;;-140.69;100.00
40908;BME280;51055;59.436;24.778;2023-03-14T22:07:29;58956.56;;;-140.69;100.00
40908;BME280;51055;59.436;24.778;2023-03-14T22:09:57;58956.56;;;-140.69;100.00
40908;BME280;51055;59.436;24.778;2023-03-14T22:12:24;58956.56;;;-140.69;100.00
40908;BME280;51055;59.436;24.778;2023-03-14T22:14:52;58956.56;;;-140.69;100.00
40908;BME280;51055;59.436;24.778;2023-03-14T22:17:20;58956.56;;;-140.69;100.00
40908;BME280;51055;59.436;24.778;2023-03-14T22:19:49;58956.56;;;-140.69;100.00
40908;BME280;51055;59.436;24.778;2023-03-14T22:22:18;58956.56;;;-140.69;100.00
40908;BME280;51055;59.436;24.778;2023-03-14T22:24:46;58956.56;;;-140.69;100.00
40908;BME280;51055;59.436;24.778;2023-03-14T22:27:13;58956.56;;;-140.69;100.00
40908;BME280;51055;59.436;24.778;2023-03-14T22:29:41;58956.56;;;-140.69;100.00
40908;BME280;51055;59.436;24.778;2023-03-14T22:32:10;58956.56;;;-140.69;100.00
40908;BME280;51055;59.436;24.778;2023-03-14T22:34:38;58956.56;;;-140.69;100.00
40908;BME280;51055;59.436;24.778;2023-03-14T22:37:06;58956.56;;;-140.69;100.00
40908;BME280;51055;59.436;24.778;2023-03-14T22:39:34;58956.56;;;-140.69;100.00
40908;BME280;51055;59.436;24.778;2023-03-14T22:42:02;58956.56;;;-140.69;100.00
40908;BME280;51055;59.436;24.778;2023-03-14T22:44:30;58956.56;;;-140.69;100.00
40908;BME280;51055;59.436;24.778;2023-03-14T22:46:59;58956.56;;;-140.69;100.00
40908;BME280;51055;59.436;24.778;2023-03-14T22:49:31;58956.56;;;-140.69;100.00
40908;BME280;51055;59.436;24.778;2023-03-14T22:51:59;58956.56;;;-140.69;100.00
40908;BME280;51055;59.436;24.778;2023-03-14T22:54:27;58956.56;;;-140.69;100.00
40908;BME280;51055;59.436;24.778;2023-03-14T22:56:54;58956.56;;;-140.69;100.00
40908;BME280;51055;59.436;24.778;2023-03-14T22:59:22;58956.56;;;-140.69;100.00
40908;BME280;51055;59.436;24.778;2023-03-14T23:01:50;58956.56;;;-140.69;100.00
40908;BME280;51055;59.436;24.778;2023-03-14T23:04:18;58956.56;;;-140.69;100.00
40908;BME280;51055;59.436;24.778;2023-03-14T23:06:45;58956.56;;;-140.69;100.00
40908;BME280;51055;59.436;24.778;2023-03-14T23:09:13;58956.56;;;-140.69;100.00
40908;BME280;51055;59.436;24.778;2023-03-14T23:11:41;58956.56;;;-140.69;100.00
40908;BME280;51055;59.436;24.778;2023-03-14T23:14:09;58956.56;;;-140.69;100.00
40908;BME280;51055;59.436;24.778;2023-03-14T23:16:36;58956.56;;;-140.69;100.00
40908;BME280;51055;59.436;24.778;2023-03-14T23:19:07;58956.56;;;-140.69;100.00
40908;BME280;51055;59.436;24.778;2023-03-14T23:21:37;58956.56;;;-140.69;100.00
40908;BME280;51055;59.436;24.778;2023-03-14T23:24:05;58956.56;;;-140.69;100.00
40908;BME280;51055;59.436;24.778;2023-03-14T23:26:33;58956.56;;;-140.69;100.00
40908;BME280;51055;59.436;24.778;2023-03-14T23:29:02;58956.56;;;-140.69;100.00
40908;BME280;51055;59.436;24.778;2023-03-14T23:31:33;58956.56;;;-140.69;100.00
40908;BME280;51055;59.436;24.778;2023-03-14T23:34:01;58956.56;;;-140.69;100.00
40908;BME280;51055;59.436;24.778;2023-03-14T23:36:29;58956.56;;;-140.69;100.00
40908;BME280;51055;59.436;24.778;2023-03-14T23:38:58;58956.56;;;-140.69;100.00
40908;BME280;51055;59.436;24.778;2023-03-14T23:41:25;58956.56;;;-140.69;100.00
40908;BME280;51055;59.436;24.778;2023-03-14T23:43:53;58956.56;;;-140.69;100.00
40908;BME280;51055;59.436;24.778;2023-03-14T23:46:21;58956.56;;;-140.69;100.00
40908;BME280;51055;59.436;24.778;2023-03-14T23:48:49;58956.56;;;-140.69;100.00
40908;BME280;51055;59.436;24.778;2023-03-14T23:51:18;58956.56;;;-140.69;100.00
40908;BME280;51055;59.436;24.778;2023-03-14T23:53:46;58956.56;;;-140.69;100.00
40908;BME280;51055;59.436;24.778;2023-03-14T23:56:15;58956.56;;;-140.69;100.00
40908;BME280;51055;59.436;24.778;2023-03-14T23:58:42;58956.56;;;-140.69;100.00
